This is the latest recevied weather packets stored in our database for station/object G7UKK-10. If no packets are shown the sender has not sent any weather packets the latest 1 day(s).
| Time | Temp. | Humidity | Pressure | Rain* | Wind** | Luminosity | Snow |
|---|---|---|---|---|---|---|---|
| 1778012716 | 7.22° C | 78% | 1017.7 hPa | 0 mm | 0.45 m/s, 72° | - | - |
| 1778011816 | 7.78° C | 80% | 1017.4 hPa | 0 mm | 0 m/s | - | - |
| 1778010916 | 7.78° C | 79% | 1017.2 hPa | 0 mm | 0.89 m/s, 74° | - | - |
| 1778010016 | 7.78° C | 79% | 1017.2 hPa | 0 mm | 0.89 m/s, 100° | - | - |
| 1778009116 | 7.78° C | 78% | 1017.3 hPa | 0 mm | 0.89 m/s, 88° | - | - |
| 1778008216 | 8.33° C | 80% | 1017.1 hPa | 0 mm | 0.45 m/s, 106° | - | - |
| 1778007316 | 8.33° C | 79% | 1016.9 hPa | 0 mm | 0.89 m/s, 86° | - | - |
| 1778006416 | 8.33° C | 80% | 1016.9 hPa | 0 mm | 0.89 m/s, 75° | - | - |
| 1778005516 | 8.33° C | 79% | 1016.8 hPa | 0 mm | 1.79 m/s, 69° | - | - |
| 1778004616 | 8.89° C | 76% | 1016.4 hPa | 0 mm | 1.34 m/s, 41° | - | - |
| 1778003716 | 8.89° C | 76% | 1016.6 hPa | 0 mm | 1.34 m/s, 39° | - | - |
| 1778002816 | 9.44° C | 77% | 1016.5 hPa | 0 mm | 0.89 m/s, 17° | - | - |
| 1778001916 | 10.56° C | 77% | 1016.4 hPa | 0 mm | 0.89 m/s, 126° | - | - |
| 1778001016 | 10.56° C | 77% | 1016.4 hPa | 0 mm | 0.89 m/s, 126° | - | - |
| 1778000116 | 10.56° C | 77% | 1016.4 hPa | 0 mm | 0.89 m/s, 126° | - | - |
| 1777999216 | 10.56° C | 77% | 1016.4 hPa | 0 mm | 0.89 m/s, 126° | - | - |
| 1777998325 | 10.56° C | 77% | 1016.4 hPa | 0 mm | 0.89 m/s, 126° | - | - |
| 1777997416 | 10.56° C | 77% | 1016.4 hPa | 0 mm | 0.89 m/s, 126° | - | - |
| 1777996516 | 10.56° C | 76% | 1016.1 hPa | 0 mm | 0.89 m/s, 78° | - | - |
| 1777995616 | 10.56° C | 77% | 1016.4 hPa | 0 mm | 0 m/s | - | - |
| 1777994716 | 10.56° C | 76% | 1016.3 hPa | 0 mm | 0.89 m/s, 81° | - | - |
| 1777993816 | 12.22° C | 66% | 1015.9 hPa | 0 mm | 0.45 m/s, 95° | - | - |
| 1777992916 | 12.22° C | 66% | 1015.9 hPa | 0 mm | 0.45 m/s, 95° | - | - |
| 1777992016 | 11.67° C | 65% | 1016 hPa | 0 mm | 0 m/s | - | - |
| 1777991116 | 11.11° C | 67% | 1016 hPa | 0 mm | 0.45 m/s, 97° | - | - |
* Rain latest hour (hover to see other rain measurements)
** Current wind speed in m/s (hover to see current wind gust speed)